createdAt,value
2022-12-11T00:01:22.336Z,-0.7
2022-12-11T00:11:23.999Z,-0.7
2022-12-11T00:21:26.230Z,-0.8
2022-12-11T00:31:28.509Z,-0.8
2022-12-11T00:41:30.474Z,-0.9
2022-12-11T00:51:32.928Z,-0.9
2022-12-11T01:01:35.652Z,-1
2022-12-11T01:11:37.439Z,-1
2022-12-11T01:21:39.379Z,-1
2022-12-11T01:31:41.843Z,-0.9
2022-12-11T01:41:43.879Z,-0.9
2022-12-11T01:51:45.994Z,-0.9
2022-12-11T02:01:47.686Z,-0.8
2022-12-11T02:11:49.572Z,-0.8
2022-12-11T02:21:52.066Z,-0.7
2022-12-11T03:12:02.958Z,-0.7
2022-12-11T04:02:13.822Z,-0.6
2022-12-11T05:12:28.997Z,-0.6
2022-12-11T07:22:55.565Z,-0.5
2022-12-11T07:43:21.725Z,-0.4
2022-12-11T09:53:36.043Z,0
2022-12-11T11:33:58.192Z,0.2
2022-12-11T12:04:03.729Z,0.2
2022-12-11T12:14:17.517Z,0.2
2022-12-11T12:24:07.931Z,0.3
2022-12-11T12:34:10.214Z,0.3
2022-12-11T13:14:19.030Z,0.3
2022-12-11T13:24:20.812Z,0.3
2022-12-11T13:34:22.589Z,0.2
2022-12-11T13:44:24.312Z,0.3
2022-12-11T13:54:26.294Z,0.3
2022-12-11T14:04:28.484Z,0.3
2022-12-11T14:14:31.112Z,0.3
2022-12-11T14:24:33.658Z,0.2
2022-12-11T14:34:35.307Z,0.2
2022-12-11T14:44:37.004Z,0.1
2022-12-11T14:54:39.476Z,0.1
2022-12-11T15:04:41.259Z,0.1
2022-12-11T15:14:43.772Z,0.1
2022-12-11T15:24:46.133Z,0.1
2022-12-11T15:34:48.323Z,0.1
2022-12-11T15:44:50.639Z,0
2022-12-11T15:54:52.446Z,0.1
2022-12-11T16:04:55.096Z,0
2022-12-11T16:14:56.874Z,0
2022-12-11T16:24:59.149Z,0
2022-12-11T16:35:01.807Z,0
2022-12-11T16:45:03.595Z,0
2022-12-11T16:55:06.041Z,0
2022-12-11T17:15:11.111Z,-0.1
2022-12-11T17:25:12.977Z,-0.1
2022-12-11T17:35:14.854Z,-0.1
2022-12-11T17:45:17.090Z,-0.1
2022-12-11T18:05:21.311Z,-0.1
2022-12-11T19:45:43.945Z,-0.1
2022-12-11T19:55:45.927Z,-0.1
2022-12-11T20:25:55.969Z,-0.2
2022-12-11T20:35:54.556Z,-0.2
2022-12-11T20:55:59.558Z,-0.3
2022-12-11T21:16:03.709Z,-0.4
2022-12-11T21:26:06.061Z,-0.3
2022-12-11T21:36:08.290Z,-0.3
2022-12-11T21:56:13.090Z,-0.3
2022-12-11T22:06:15.518Z,-0.3
2022-12-11T22:16:17.773Z,-0.3
2022-12-11T22:26:20.070Z,-0.3
2022-12-11T22:36:21.939Z,-0.3
2022-12-11T22:56:26.425Z,-0.3
2022-12-11T23:06:28.337Z,-0.3
2022-12-11T23:16:30.971Z,-0.3
2022-12-11T23:26:33.497Z,-0.3
2022-12-11T23:36:35.662Z,-0.4
2022-12-11T23:46:38.302Z,-0.4
2022-12-11T23:56:40.750Z,-0.4
